Terminal Aerodrome Forecast
Issued by NWS

Home | Current Version | Previous Version | Text Only | Print | Product List | Glossary Off
Versions: 1 2 3 4 5 6 7 8 9 10 11 12 13 14 15 16 17 18 19 20 21

262
FTUS43 KOAX 281340 AAB
TAFCDR
TAF AMD
KCDR 281340Z 2814/2912 06013KT 3SM -SN BR OVC015
      TEMPO 2814/2816 1SM -SN BR
     FM281600 06014KT 2SM -SN OVC010
     FM282200 05011KT P6SM VCSH OVC025
     FM290100 04004KT P6SM VCSH OVC040=

USA.gov is the U.S. government's official web portal to all federal, state and local government web resources and services.